createdAt,value
2019-03-15T00:00:32.771Z,98836.61
2019-03-15T00:03:04.710Z,98852.56
2019-03-15T00:05:36.680Z,98861.41
2019-03-15T00:08:12.649Z,98868.29
2019-03-15T00:10:52.227Z,98873.14
2019-03-15T00:13:25.756Z,98891.50
2019-03-15T00:16:00.146Z,98894.22
2019-03-15T00:18:37.358Z,98898.94
2019-03-15T00:21:20.692Z,98910.45
2019-03-15T00:24:08.530Z,98903.79
2019-03-15T00:26:47.082Z,98927.86
2019-03-15T00:29:29.109Z,98917.80
2019-03-15T00:32:02.639Z,98930.48
2019-03-15T00:34:34.717Z,98939.20
2019-03-15T00:37:13.801Z,98942.91
2019-03-15T00:39:51.386Z,98955.92
2019-03-15T00:42:26.314Z,98955.47
2019-03-15T00:45:04.617Z,98951.56
2019-03-15T00:47:40.120Z,98954.03
2019-03-15T00:50:17.813Z,98964.05
2019-03-15T00:52:52.467Z,98969.93
2019-03-15T00:55:26.787Z,98978.43
2019-03-15T00:58:04.674Z,98981.64
2019-03-15T01:00:38.360Z,98984.19
2019-03-15T01:03:15.047Z,98992.90
2019-03-15T01:05:52.783Z,98990.31
2019-03-15T01:08:32.187Z,99010.97
2019-03-15T01:11:08.639Z,99004.16
2019-03-15T01:13:41.558Z,99013.64
2019-03-15T01:16:15.226Z,99017.41
2019-03-15T01:18:51.565Z,99020.61
2019-03-15T01:21:26.075Z,99027.08
2019-03-15T01:23:57.912Z,99030.02
2019-03-15T01:26:31.406Z,99019.59
2019-03-15T01:29:09.013Z,99022.14
2019-03-15T01:31:42.507Z,99022.28
2019-03-15T01:34:25.870Z,99025.13
2019-03-15T01:36:59.280Z,99023.77
2019-03-15T01:39:36.199Z,99030.48
2019-03-15T01:42:09.684Z,99028.25
2019-03-15T01:44:41.487Z,99040.63
2019-03-15T01:47:13.325Z,99049.11
2019-03-15T01:49:45.417Z,99047.61
2019-03-15T01:52:17.416Z,99057.19
2019-03-15T01:54:49.247Z,99050.50
2019-03-15T01:57:21.094Z,99057.27
2019-03-15T01:59:52.952Z,99055.99
2019-03-15T02:02:24.822Z,99059.00
2019-03-15T02:04:57.625Z,99061.70
2019-03-15T02:07:29.534Z,99070.63
2019-03-15T02:10:01.416Z,99070.63
2019-03-15T02:12:33.421Z,99068.64
2019-03-15T02:15:05.920Z,99068.01
2019-03-15T02:17:37.807Z,99078.77
2019-03-15T02:20:09.672Z,99079.71
2019-03-15T02:22:41.575Z,99077.02
2019-03-15T02:25:13.514Z,99074.64
2019-03-15T02:27:45.337Z,99081.89
2019-03-15T02:30:17.172Z,99080.47
2019-03-15T02:32:49.047Z,99082.12
2019-03-15T02:35:20.915Z,99077.80
2019-03-15T02:37:52.789Z,99066.39
2019-03-15T02:40:24.595Z,99082.12
2019-03-15T02:42:56.449Z,99074.53
2019-03-15T02:45:28.322Z,99076.30
2019-03-15T02:48:00.247Z,99081.55
2019-03-15T02:50:32.133Z,99078.48
2019-03-15T02:53:03.979Z,99085.30
2019-03-15T02:55:35.806Z,99089.28
2019-03-15T02:58:07.668Z,99093.70
2019-03-15T03:00:41.026Z,99100.81
2019-03-15T03:03:13.195Z,99096.05
2019-03-15T03:05:45.198Z,99100.36
2019-03-15T03:08:17.061Z,99099.68
2019-03-15T03:10:49.435Z,99087.78
2019-03-15T03:13:21.399Z,99088.77
2019-03-15T03:15:53.294Z,99104.90
2019-03-15T03:18:25.159Z,99103.55
2019-03-15T03:20:57.019Z,99097.05
2019-03-15T03:23:28.939Z,99096.05
2019-03-15T03:26:00.807Z,99101.00
2019-03-15T03:28:32.686Z,99091.77
2019-03-15T03:31:04.701Z,99104.64
2019-03-15T03:33:36.818Z,99102.95
2019-03-15T03:36:08.713Z,99117.82
2019-03-15T03:38:40.658Z,99122.33
2019-03-15T03:41:12.472Z,99111.48
2019-03-15T03:43:44.463Z,99117.59
2019-03-15T03:46:16.329Z,99117.19
2019-03-15T03:48:49.405Z,99115.42
2019-03-15T03:51:21.282Z,99131.41
2019-03-15T03:53:53.384Z,99127.58
2019-03-15T03:56:25.297Z,99129.28
2019-03-15T03:58:57.153Z,99120.45
2019-03-15T04:01:28.945Z,99120.87
2019-03-15T04:04:00.847Z,99133.83
2019-03-15T04:06:32.757Z,99136.23
2019-03-15T04:09:04.753Z,99149.41
2019-03-15T04:11:36.593Z,99139.52
2019-03-15T04:14:08.381Z,99136.60
2019-03-15T04:16:40.223Z,99146.52
2019-03-15T04:19:12.068Z,99143.81
2019-03-15T04:21:43.840Z,99152.45
2019-03-15T04:24:15.689Z,99158.01
2019-03-15T04:26:47.604Z,99162.63
2019-03-15T04:29:23.273Z,99160.30
2019-03-15T04:31:55.052Z,99174.92
2019-03-15T04:34:28.419Z,99173.70
2019-03-15T04:37:00.494Z,99174.52
2019-03-15T04:39:32.347Z,99183.67
2019-03-15T04:42:04.175Z,99185.07
2019-03-15T04:44:35.943Z,99187.58
2019-03-15T04:47:07.860Z,99204.94
2019-03-15T04:49:39.694Z,99205.23
2019-03-15T04:52:12.648Z,99202.72
2019-03-15T04:54:44.496Z,99191.82
2019-03-15T04:57:16.328Z,99197.38
2019-03-15T04:59:48.256Z,99194.38
2019-03-15T05:02:21.401Z,99196.16
2019-03-15T05:04:54.361Z,99203.86
2019-03-15T05:07:26.288Z,99212.95
2019-03-15T05:09:58.143Z,99201.88
2019-03-15T05:12:29.961Z,99211.36
2019-03-15T05:15:01.889Z,99219.51
2019-03-15T05:17:33.774Z,99212.89
2019-03-15T05:20:06.374Z,99224.73
2019-03-15T05:22:38.198Z,99219.73
2019-03-15T05:25:12.343Z,99214.25
2019-03-15T05:27:44.267Z,99215.33
2019-03-15T05:30:16.152Z,99235.20
2019-03-15T05:32:47.962Z,99234.52
2019-03-15T05:35:19.778Z,99240.34
2019-03-15T05:37:51.698Z,99240.86
2019-03-15T05:40:23.507Z,99241.56
2019-03-15T05:42:55.390Z,99240.53
2019-03-15T05:45:27.271Z,99238.93
2019-03-15T05:47:59.074Z,99244.77
2019-03-15T05:50:30.890Z,99255.89
2019-03-15T05:53:02.883Z,99260.95
2019-03-15T05:55:34.685Z,99252.61
2019-03-15T05:58:06.620Z,99263.96
2019-03-15T06:00:38.491Z,99267.61
2019-03-15T06:03:12.654Z,99270.63
2019-03-15T06:05:44.764Z,99276.39
2019-03-15T06:08:16.588Z,99273.72
2019-03-15T06:10:48.486Z,99287.42
2019-03-15T06:13:20.259Z,99282.20
2019-03-15T06:15:52.030Z,99293.68
2019-03-15T06:18:24.917Z,99302.03
2019-03-15T06:20:56.763Z,99296.64
2019-03-15T06:23:28.762Z,99294.46
2019-03-15T06:26:00.647Z,99314.73
2019-03-15T06:28:32.520Z,99312.77
2019-03-15T06:31:04.406Z,99305.19
2019-03-15T06:33:36.239Z,99314.80
2019-03-15T06:36:08.093Z,99315.08
2019-03-15T06:38:39.965Z,99315.66
2019-03-15T06:41:14.348Z,99307.80
2019-03-15T06:43:45.407Z,99317.11
2019-03-15T06:46:17.327Z,99324.30
2019-03-15T06:48:49.434Z,99335.38
2019-03-15T06:51:21.321Z,99327.94
2019-03-15T06:53:53.244Z,99326.70
2019-03-15T06:56:25.135Z,99337.94
2019-03-15T06:58:57.004Z,99342.18
2019-03-15T07:01:28.863Z,99344.03
2019-03-15T07:04:00.817Z,99333.98
2019-03-15T07:06:33.091Z,99340.16
2019-03-15T07:09:07.415Z,99337.16
2019-03-15T07:11:39.731Z,99348.31
2019-03-15T07:14:11.799Z,99361.73
2019-03-15T07:16:43.839Z,99354.66
2019-03-15T07:19:25.587Z,99357.12
2019-03-15T07:21:49.768Z,99357.70
2019-03-15T07:24:25.430Z,99352.84
2019-03-15T07:26:55.723Z,99346.33
2019-03-15T07:29:27.813Z,99347.56
2019-03-15T07:31:59.843Z,99350.95
2019-03-15T07:34:31.921Z,99353.01
2019-03-15T07:37:03.867Z,99352.72
2019-03-15T07:39:35.926Z,99360.59
2019-03-15T07:42:07.925Z,99357.00
2019-03-15T07:44:39.821Z,99356.23
2019-03-15T07:47:11.819Z,99349.58
2019-03-15T07:49:44.006Z,99364.66
2019-03-15T07:52:16.137Z,99353.78
2019-03-15T07:54:48.075Z,99356.74
2019-03-15T07:57:19.951Z,99364.16
2019-03-15T07:59:52.158Z,99362.38
2019-03-15T08:02:28.205Z,99355.63
2019-03-15T08:05:00.392Z,99371.13
2019-03-15T08:07:37.795Z,99376.82
2019-03-15T08:10:08.480Z,99372.31
2019-03-15T08:12:42.315Z,99379.86
2019-03-15T08:15:14.721Z,99381.30
2019-03-15T08:17:47.087Z,99382.34
2019-03-15T08:20:19.157Z,99380.70
2019-03-15T08:22:52.396Z,99385.71
2019-03-15T08:25:24.414Z,99377.02
2019-03-15T08:27:58.540Z,99384.89
2019-03-15T08:30:30.487Z,99383.14
2019-03-15T08:33:10.017Z,99382.60
2019-03-15T08:35:36.048Z,99375.73
2019-03-15T08:38:08.070Z,99385.55
2019-03-15T08:40:40.005Z,99383.87
2019-03-15T08:43:11.894Z,99386.82
2019-03-15T08:45:43.878Z,99389.25
2019-03-15T08:48:17.773Z,99398.16
2019-03-15T08:50:49.704Z,99399.73
2019-03-15T08:53:21.506Z,99393.22
2019-03-15T08:55:53.706Z,99397.40
2019-03-15T08:58:25.786Z,99400.64
2019-03-15T09:00:57.814Z,99399.19
2019-03-15T09:03:34.573Z,99405.17
2019-03-15T09:06:10.377Z,99404.20
2019-03-15T09:08:46.470Z,99404.70
2019-03-15T09:11:18.518Z,99405.13
2019-03-15T09:13:50.534Z,99417.30
2019-03-15T09:16:22.652Z,99406.58
2019-03-15T09:18:59.712Z,99413.28
2019-03-15T09:21:34.769Z,99405.60
2019-03-15T09:24:10.532Z,99413.28
2019-03-15T09:26:45.357Z,99406.20
2019-03-15T09:29:17.298Z,99404.30
2019-03-15T09:32:05.460Z,99402.11
2019-03-15T09:34:31.830Z,99400.78
2019-03-15T09:37:04.202Z,99413.05
2019-03-15T09:39:39.338Z,99412.08
2019-03-15T09:42:13.950Z,99402.30
2019-03-15T09:44:48.336Z,99393.77
2019-03-15T09:47:25.324Z,99402.11
2019-03-15T09:50:00.904Z,99392.97
2019-03-15T09:52:43.914Z,99391.25
2019-03-15T09:55:16.988Z,99380.98
2019-03-15T09:57:53.248Z,99390.02
2019-03-15T10:00:27.819Z,99389.12
2019-03-15T10:03:02.822Z,99386.86
2019-03-15T10:05:37.366Z,99386.61
2019-03-15T10:08:23.506Z,99384.06
2019-03-15T10:10:57.265Z,99392.17
2019-03-15T10:13:36.757Z,99382.44
2019-03-15T10:16:15.130Z,99384.02
2019-03-15T10:18:52.482Z,99379.12
2019-03-15T10:21:29.081Z,99368.85
2019-03-15T10:24:02.108Z,99373.31
2019-03-15T10:26:35.952Z,99373.84
2019-03-15T10:29:15.612Z,99374.88
2019-03-15T10:31:44.596Z,99364.53
2019-03-15T10:34:25.440Z,99359.93
2019-03-15T10:36:57.478Z,99378.11
2019-03-15T10:39:29.386Z,99369.66
2019-03-15T10:42:01.297Z,99367.73
2019-03-15T10:44:36.185Z,99366.50
2019-03-15T10:47:14.046Z,99365.61
2019-03-15T10:49:57.182Z,99366.23
2019-03-15T10:52:29.206Z,99361.64
2019-03-15T10:55:01.034Z,99354.63
2019-03-15T10:57:32.992Z,99357.07
2019-03-15T11:00:08.570Z,99371.22
2019-03-15T11:02:43.446Z,99363.70
2019-03-15T11:05:19.769Z,99360.44
2019-03-15T11:07:51.649Z,99352.11
2019-03-15T11:10:23.832Z,99363.42
2019-03-15T11:13:09.572Z,99359.95
2019-03-15T11:15:54.279Z,99346.96
2019-03-15T11:18:31.012Z,99340.89
2019-03-15T11:21:07.960Z,99340.25
2019-03-15T11:23:41.023Z,99332.18
2019-03-15T11:26:17.169Z,99342.61
2019-03-15T11:28:50.678Z,99338.22
2019-03-15T11:31:22.567Z,99343.46
2019-03-15T11:33:56.178Z,99335.83
2019-03-15T11:36:29.665Z,99328.26
2019-03-15T11:39:01.751Z,99330.56
2019-03-15T11:41:36.487Z,99324.64
2019-03-15T11:44:09.859Z,99325.25
2019-03-15T11:46:41.747Z,99324.00
2019-03-15T11:49:15.990Z,99316.51
2019-03-15T11:51:52.262Z,99312.08
2019-03-15T11:54:23.833Z,99311.38
2019-03-15T11:56:55.645Z,99300.59
2019-03-15T11:59:27.489Z,99299.94
2019-03-15T12:02:04.219Z,99298.94
2019-03-15T12:04:35.428Z,99286.34
2019-03-15T12:07:10.645Z,99278.31
2019-03-15T12:09:46.403Z,99274.73
2019-03-15T12:12:24.258Z,99281.88
2019-03-15T12:14:56.110Z,99278.24
2019-03-15T12:17:29.585Z,99280.85
2019-03-15T12:26:14.739Z,99273.78
2019-03-15T12:28:46.858Z,99264.73
2019-03-15T12:31:18.884Z,99260.00
2019-03-15T12:33:52.816Z,99261.33
2019-03-15T12:36:24.733Z,99254.91
2019-03-15T12:38:59.409Z,99258.91
2019-03-15T12:41:38.527Z,99249.23
2019-03-15T12:44:13.654Z,99236.22
2019-03-15T12:46:44.143Z,99239.10
2019-03-15T12:49:25.486Z,99234.66
2019-03-15T12:52:09.009Z,99231.95
2019-03-15T12:54:52.980Z,99233.17
2019-03-15T12:57:32.317Z,99233.60
2019-03-15T13:00:09.817Z,99233.64
2019-03-15T13:02:47.177Z,99225.13
2019-03-15T13:05:25.024Z,99217.23
2019-03-15T13:08:03.299Z,99212.39
2019-03-15T13:10:41.433Z,99216.04
2019-03-15T13:13:13.362Z,99230.45
2019-03-15T13:16:54.537Z,99222.42
2019-03-15T13:19:54.528Z,99205.12
2019-03-15T13:22:41.881Z,99187.09
2019-03-15T13:25:18.141Z,99177.36
2019-03-15T13:46:27.513Z,99185.13
2019-03-15T13:49:03.288Z,99186.17
2019-03-15T13:51:35.381Z,99169.01
2019-03-15T13:54:07.609Z,99164.25
2019-03-15T13:56:42.054Z,99165.25
2019-03-15T13:59:44.215Z,99158.23
2019-03-15T14:02:17.278Z,99147.18
2019-03-15T14:05:08.389Z,99147.74
2019-03-15T14:07:56.230Z,99136.08
2019-03-15T14:10:34.222Z,99137.40
2019-03-15T14:16:57.535Z,99138.24
2019-03-15T14:19:34.201Z,99125.54
2019-03-15T14:22:12.116Z,99118.10
2019-03-15T14:28:00.395Z,99102.36
2019-03-15T14:30:38.766Z,99082.98
2019-03-15T14:33:14.185Z,99085.11
2019-03-15T14:35:49.076Z,99084.70
2019-03-15T14:38:23.406Z,99075.14
2019-03-15T14:40:54.865Z,99077.78
2019-03-15T14:43:28.198Z,99085.59
2019-03-15T14:46:00.294Z,99071.23
2019-03-15T14:48:33.933Z,99065.92
2019-03-15T14:51:06.438Z,99063.86
2019-03-15T14:53:38.650Z,99056.53
2019-03-15T14:56:13.875Z,99056.20
2019-03-15T14:58:45.880Z,99049.08
2019-03-15T15:01:18.364Z,99038.60
2019-03-15T15:03:50.312Z,99036.34
2019-03-15T15:06:24.349Z,99027.38
2019-03-15T15:08:56.690Z,99030.80
2019-03-15T15:11:41.524Z,99033.64
2019-03-15T15:14:15.946Z,99023.31
2019-03-15T15:16:48.415Z,99019.24
2019-03-15T15:19:25.796Z,99015.48
2019-03-15T15:21:57.768Z,99003.52
2019-03-15T15:24:35.097Z,98992.25
2019-03-15T15:27:09.594Z,98998.19
2019-03-15T15:29:42.447Z,98993.38
2019-03-15T15:32:26.111Z,98991.67
2019-03-15T15:35:05.824Z,98974.20
2019-03-15T15:37:37.698Z,98978.42
2019-03-15T15:40:15.419Z,98973.04
2019-03-15T15:42:54.502Z,98975.43
2019-03-15T15:45:32.426Z,98980.03
2019-03-15T15:48:06.251Z,98967.36
2019-03-15T15:50:45.415Z,98984.78
2019-03-15T15:53:20.558Z,98988.92
2019-03-15T15:55:57.401Z,98979.20
2019-03-15T15:58:31.252Z,98971.91
2019-03-15T16:01:11.028Z,98972.25
2019-03-15T16:03:45.848Z,98954.67
2019-03-15T16:06:18.013Z,98963.04
2019-03-15T16:08:50.045Z,98949.37
2019-03-15T16:11:21.952Z,98941.31
2019-03-15T16:13:53.982Z,98933.55
2019-03-15T16:16:27.487Z,98912.71
2019-03-15T16:19:01.017Z,98915.27
2019-03-15T16:21:32.988Z,98910.28
2019-03-15T16:24:05.140Z,98906.30
2019-03-15T16:26:37.408Z,98896.00
2019-03-15T16:29:09.531Z,98885.42
2019-03-15T16:31:41.708Z,98878.28
2019-03-15T16:34:13.865Z,98883.25
2019-03-15T16:36:45.899Z,98873.45
2019-03-15T16:39:17.872Z,98867.83
2019-03-15T16:41:50.633Z,98863.47
2019-03-15T16:44:22.582Z,98864.47
2019-03-15T16:46:54.507Z,98866.39
2019-03-15T16:49:26.432Z,98847.94
2019-03-15T16:51:58.434Z,98851.61
2019-03-15T16:54:30.342Z,98856.22
2019-03-15T16:57:02.375Z,98851.46
2019-03-15T16:59:34.265Z,98853.04
2019-03-15T17:02:06.381Z,98840.43
2019-03-15T17:04:38.342Z,98849.86
2019-03-15T17:07:10.323Z,98856.53
2019-03-15T17:09:44.454Z,98859.08
2019-03-15T17:12:17.258Z,98848.09
2019-03-15T17:14:49.220Z,98849.06
2019-03-15T17:17:45.621Z,98847.39
2019-03-15T17:20:21.292Z,98841.89
2019-03-15T17:22:55.179Z,98846.45
2019-03-15T17:25:33.582Z,98838.57
2019-03-15T17:28:15.230Z,98840.03
2019-03-15T17:31:09.110Z,98829.16
2019-03-15T17:33:32.053Z,98822.64
2019-03-15T17:36:03.912Z,98824.14
2019-03-15T17:38:35.967Z,98828.63
2019-03-15T17:41:08.053Z,98830.88
2019-03-15T17:43:39.973Z,98817.05
2019-03-15T17:46:13.156Z,98822.84
2019-03-15T17:48:47.860Z,98815.05
2019-03-15T17:51:20.905Z,98825.08
2019-03-15T17:54:00.018Z,98821.36
2019-03-15T17:56:32.024Z,98793.34
2019-03-15T17:59:12.462Z,98784.05
2019-03-15T18:01:39.602Z,98764.91
2019-03-15T18:04:11.849Z,98790.63
2019-03-15T18:06:44.275Z,98788.95
2019-03-15T18:09:19.322Z,98786.70
2019-03-15T18:11:56.897Z,98794.63
2019-03-15T18:23:02.669Z,98783.34
2019-03-15T18:25:34.888Z,98785.26
2019-03-15T18:28:08.534Z,98787.50
2019-03-15T18:30:40.581Z,98801.41
2019-03-15T18:33:12.752Z,98809.39
2019-03-15T18:35:49.430Z,98790.19
2019-03-15T18:38:23.281Z,98792.22
2019-03-15T18:40:59.099Z,98807.02
2019-03-15T18:43:34.869Z,98794.90
2019-03-15T18:54:33.345Z,98805.37
2019-03-15T18:57:09.617Z,98790.83
2019-03-15T18:59:52.667Z,98795.19
2019-03-15T19:02:21.873Z,98808.47
2019-03-15T19:05:14.786Z,98823.59
2019-03-15T19:07:52.283Z,98833.80
2019-03-15T19:10:26.594Z,98819.30
2019-03-15T19:13:13.263Z,98828.52
2019-03-15T19:48:56.848Z,98865.00
2019-03-15T19:51:32.038Z,98861.76
2019-03-15T19:54:08.284Z,98861.43
2019-03-15T19:56:42.325Z,98865.56
2019-03-15T19:59:14.858Z,98864.08
2019-03-15T20:01:47.876Z,98875.67
2019-03-15T20:04:21.746Z,98865.34
2019-03-15T20:06:54.347Z,98866.61
2019-03-15T20:09:29.499Z,98858.17
2019-03-15T20:12:01.696Z,98866.16
2019-03-15T20:14:35.336Z,98884.97
2019-03-15T20:17:14.413Z,98882.34
2019-03-15T20:19:46.790Z,98898.67
2019-03-15T20:22:26.386Z,98896.59
2019-03-15T20:24:57.243Z,98905.25
2019-03-15T20:27:31.153Z,98929.11
2019-03-15T20:30:03.892Z,98934.69
2019-03-15T20:32:38.881Z,98951.12
2019-03-15T20:35:14.632Z,98971.92
2019-03-15T20:37:46.905Z,98976.27
2019-03-15T20:40:19.060Z,98986.63
2019-03-15T20:42:51.204Z,98972.37
2019-03-15T20:45:26.657Z,98939.14
2019-03-15T20:47:58.944Z,98951.40
2019-03-15T20:50:45.886Z,98955.70
2019-03-15T20:53:12.696Z,98968.61
2019-03-15T20:55:42.788Z,98972.52
2019-03-15T20:58:15.180Z,98976.64
2019-03-15T21:00:47.392Z,98971.02
2019-03-15T21:03:20.098Z,98975.38
2019-03-15T21:05:52.308Z,98975.22
2019-03-15T21:08:24.692Z,98981.10
2019-03-15T21:10:56.919Z,98989.47
2019-03-15T21:13:33.892Z,98991.55
2019-03-15T21:16:05.330Z,99009.76
2019-03-15T21:18:39.206Z,99011.94
2019-03-15T21:21:13.000Z,99018.31
2019-03-15T21:23:47.313Z,99020.09
2019-03-15T21:26:19.179Z,99024.50
2019-03-15T21:28:56.526Z,99021.56
2019-03-15T21:31:29.724Z,99030.23
2019-03-15T21:34:02.144Z,99033.27
2019-03-15T21:36:34.768Z,99047.50
2019-03-15T21:39:13.265Z,99053.27
2019-03-15T21:45:09.956Z,99055.89
2019-03-15T21:49:30.267Z,99048.80
2019-03-15T21:50:34.744Z,99057.40
2019-03-15T21:54:10.993Z,99065.26
2019-03-15T21:56:23.619Z,99059.41
2019-03-15T21:58:58.172Z,99054.71
2019-03-15T22:01:32.403Z,99060.67
2019-03-15T22:04:06.569Z,99064.86
2019-03-15T22:06:56.150Z,99071.97
2019-03-15T22:09:28.619Z,99074.31
2019-03-15T22:12:01.464Z,99085.52
2019-03-15T22:14:37.360Z,99077.15
2019-03-15T22:17:17.668Z,99094.61
2019-03-15T22:20:01.065Z,99075.97
2019-03-15T22:22:35.153Z,99074.11
2019-03-15T22:25:07.970Z,99088.88
2019-03-15T22:27:57.505Z,99107.55
2019-03-15T22:30:31.137Z,99098.84
2019-03-15T22:33:03.292Z,99113.43
2019-03-15T22:35:36.487Z,99117.64
2019-03-15T22:38:08.539Z,99130.55
2019-03-15T22:40:40.746Z,99133.05
2019-03-15T22:43:13.195Z,99138.88
2019-03-15T22:45:45.380Z,99151.34
2019-03-15T22:48:17.373Z,99155.79
2019-03-15T22:50:49.400Z,99157.61
2019-03-15T22:53:21.552Z,99172.88
2019-03-15T22:55:53.508Z,99172.50
2019-03-15T22:58:25.621Z,99167.31
2019-03-15T23:00:57.729Z,99172.66
2019-03-15T23:03:31.251Z,99190.23
2019-03-15T23:06:03.297Z,99183.69
2019-03-15T23:08:35.385Z,99201.30
2019-03-15T23:11:07.376Z,99209.11
2019-03-15T23:13:39.872Z,99214.33
2019-03-15T23:16:12.072Z,99214.00
2019-03-15T23:18:45.469Z,99208.41
2019-03-15T23:21:17.686Z,99202.64
2019-03-15T23:23:49.816Z,99216.56
2019-03-15T23:26:21.763Z,99218.70
2019-03-15T23:28:53.769Z,99215.66
2019-03-15T23:31:25.891Z,99219.73
2019-03-15T23:33:57.828Z,99220.41
2019-03-15T23:36:29.869Z,99229.31
2019-03-15T23:39:01.942Z,99239.56
2019-03-15T23:41:34.423Z,99223.70
2019-03-15T23:44:06.445Z,99238.70
2019-03-15T23:46:38.517Z,99242.20
2019-03-15T23:49:10.459Z,99254.53
2019-03-15T23:51:42.554Z,99243.92
2019-03-15T23:54:14.583Z,99250.78
2019-03-15T23:56:46.580Z,99248.67
2019-03-15T23:59:18.470Z,99262.13
